createdAt,value
2023-01-13T00:00:41.578Z,8.08
2023-01-13T00:01:38.476Z,8.11
2023-01-13T00:02:38.193Z,8.04
2023-01-13T00:03:35.685Z,7.93
2023-01-13T00:04:35.214Z,7.90
2023-01-13T00:05:32.078Z,7.86
2023-01-13T00:06:29.491Z,7.83
2023-01-13T00:07:26.279Z,7.82
2023-01-13T00:08:23.332Z,7.77
2023-01-13T00:09:24.865Z,7.74
2023-01-13T00:10:22.385Z,7.62
2023-01-13T00:11:20.174Z,7.56
2023-01-13T00:12:20.296Z,7.49
2023-01-13T00:13:26.870Z,7.47
2023-01-13T00:14:27.162Z,7.45
2023-01-13T00:15:23.846Z,7.46
2023-01-13T00:16:23.067Z,7.46
2023-01-13T00:17:20.218Z,7.48
2023-01-13T00:18:27.325Z,7.50
2023-01-13T00:19:24.075Z,7.49
2023-01-13T00:20:21.119Z,7.52
2023-01-13T00:21:22.491Z,7.57
2023-01-13T00:22:19.123Z,7.59
2023-01-13T00:23:16.135Z,7.58
2023-01-13T00:24:16.477Z,7.60
2023-01-13T00:25:16.146Z,7.61
2023-01-13T00:26:14.909Z,7.62
2023-01-13T00:27:11.662Z,7.64
2023-01-13T00:28:11.075Z,7.66
2023-01-13T00:29:07.860Z,7.67
2023-01-13T00:30:05.710Z,7.68
2023-01-13T00:31:25.963Z,7.68
2023-01-13T00:32:22.852Z,7.71
2023-01-13T00:33:19.825Z,7.69
2023-01-13T00:34:16.547Z,7.66
2023-01-13T00:35:13.332Z,7.65
2023-01-13T00:36:18.293Z,7.65
2023-01-13T00:37:15.025Z,7.64
2023-01-13T00:38:11.716Z,7.61
2023-01-13T00:39:08.472Z,7.60
2023-01-13T00:40:08.419Z,7.63
2023-01-13T00:41:06.941Z,7.67
2023-01-13T00:42:23.426Z,7.68
2023-01-13T00:43:23.273Z,7.71
2023-01-13T00:44:19.968Z,7.71
2023-01-13T00:45:16.671Z,7.68
2023-01-13T00:46:15.040Z,7.70
2023-01-13T00:47:12.231Z,7.70
2023-01-13T00:48:09.223Z,7.76
2023-01-13T00:49:06.067Z,7.75
2023-01-13T00:50:02.858Z,7.74
2023-01-13T00:51:04.234Z,7.70
2023-01-13T00:52:01.291Z,7.63
2023-01-13T00:53:01.423Z,7.61
2023-01-13T00:53:58.664Z,7.56
2023-01-13T00:54:58.809Z,7.51
2023-01-13T00:56:05.982Z,7.47
2023-01-13T00:57:04.359Z,7.43
2023-01-13T00:58:03.390Z,7.43
2023-01-13T00:59:00.182Z,7.46
2023-01-13T00:59:56.934Z,7.47
2023-01-13T01:00:53.793Z,7.44
2023-01-13T01:01:50.704Z,7.40
2023-01-13T01:02:47.783Z,7.40
2023-01-13T01:03:44.949Z,7.34
2023-01-13T01:04:41.718Z,7.30
2023-01-13T01:05:39.594Z,7.25
2023-01-13T01:06:36.484Z,7.18
2023-01-13T01:07:33.299Z,7.12
2023-01-13T01:08:29.955Z,7.09
2023-01-13T01:09:32.888Z,6.99
2023-01-13T01:10:30.072Z,6.94
2023-01-13T01:11:30.756Z,6.89
2023-01-13T01:12:27.420Z,6.86
2023-01-13T01:13:24.034Z,6.82
2023-01-13T01:14:20.824Z,6.79
2023-01-13T01:15:17.688Z,6.75
2023-01-13T01:16:15.942Z,6.71
2023-01-13T01:17:12.626Z,6.69
2023-01-13T01:18:09.252Z,6.66
2023-01-13T01:19:05.984Z,6.61
2023-01-13T01:20:04.269Z,6.56
2023-01-13T01:21:01.014Z,6.56
2023-01-13T01:21:57.770Z,6.52
2023-01-13T01:22:54.626Z,6.52
2023-01-13T01:23:51.304Z,6.49
2023-01-13T01:24:47.916Z,6.45
2023-01-13T01:25:44.658Z,6.38
2023-01-13T01:26:41.911Z,6.32
2023-01-13T01:27:38.653Z,6.26
2023-01-13T01:28:35.438Z,6.24
2023-01-13T01:29:32.220Z,6.25
2023-01-13T01:30:28.956Z,6.28
2023-01-13T01:31:27.270Z,6.30
2023-01-13T01:32:24.161Z,6.30
2023-01-13T01:33:21.259Z,6.33
2023-01-13T01:34:18.035Z,6.35
2023-01-13T01:35:14.737Z,6.36
2023-01-13T01:36:12.099Z,6.37
2023-01-13T01:37:08.849Z,6.35
2023-01-13T01:38:05.927Z,6.35
2023-01-13T01:39:06.537Z,6.36
2023-01-13T01:40:03.561Z,6.37
2023-01-13T01:41:00.289Z,6.37
2023-01-13T01:42:16.072Z,6.39
2023-01-13T01:43:39.007Z,6.37
2023-01-13T01:44:41.642Z,6.36
2023-01-13T01:45:38.669Z,6.37
2023-01-13T01:46:42.439Z,6.31
2023-01-13T01:47:39.242Z,6.32
2023-01-13T01:48:40.461Z,6.33
2023-01-13T01:49:37.327Z,6.34
2023-01-13T01:50:34.114Z,6.31
2023-01-13T01:51:32.878Z,6.32
2023-01-13T01:52:40.662Z,6.30
2023-01-13T01:53:37.492Z,6.32
2023-01-13T01:54:48.004Z,6.28
2023-01-13T01:55:44.699Z,6.30
2023-01-13T01:56:41.830Z,6.31
2023-01-13T01:57:55.443Z,6.30
2023-01-13T01:58:52.223Z,6.26
2023-01-13T01:59:49.338Z,6.24
2023-01-13T02:00:46.035Z,6.29
2023-01-13T02:01:42.915Z,6.30
2023-01-13T02:02:40.039Z,6.32
2023-01-13T02:03:37.442Z,6.36
2023-01-13T02:04:36.555Z,6.40
2023-01-13T02:05:34.421Z,6.38
2023-01-13T02:06:31.094Z,6.37
2023-01-13T02:07:29.670Z,6.38
2023-01-13T02:08:26.367Z,6.37
2023-01-13T02:09:23.098Z,6.40
2023-01-13T02:10:24.291Z,6.37
2023-01-13T02:12:06.252Z,6.36
2023-01-13T02:13:06.289Z,6.39
2023-01-13T02:14:05.893Z,6.31
2023-01-13T02:15:03.823Z,6.28
2023-01-13T02:16:06.470Z,6.22
2023-01-13T02:17:21.478Z,6.28
2023-01-13T02:18:37.591Z,6.31
2023-01-13T02:20:21.769Z,6.23
2023-01-13T02:21:37.084Z,6.11
2023-01-13T02:23:09.254Z,6.09
2023-01-13T02:24:50.779Z,6.03
2023-01-13T02:26:24.288Z,5.97
2023-01-13T02:27:54.716Z,5.94
2023-01-13T02:29:28.483Z,5.95
2023-01-13T02:30:46.787Z,5.97
2023-01-13T02:31:43.792Z,5.96
2023-01-13T02:33:32.300Z,5.95
2023-01-13T02:34:38.476Z,5.94
2023-01-13T02:35:58.543Z,5.94
2023-01-13T02:37:00.337Z,6.01
2023-01-13T02:37:57.086Z,6.07
2023-01-13T02:39:14.293Z,6.08
2023-01-13T02:40:27.993Z,6.13
2023-01-13T02:41:50.553Z,6.18
2023-01-13T02:43:40.979Z,6.19
2023-01-13T02:44:44.437Z,6.19
2023-01-13T02:45:56.920Z,6.18
2023-01-13T02:47:20.562Z,6.23
2023-01-13T02:48:17.340Z,6.24
2023-01-13T02:49:17.271Z,6.27
2023-01-13T02:50:19.190Z,6.23
2023-01-13T02:51:18.373Z,6.19
2023-01-13T02:52:39.583Z,6.08
2023-01-13T02:53:39.479Z,6.03
2023-01-13T02:54:36.204Z,6.01
2023-01-13T02:55:41.546Z,5.97
2023-01-13T02:56:40.694Z,5.93
2023-01-13T02:57:37.482Z,5.88
2023-01-13T02:58:35.205Z,5.85
2023-01-13T02:59:31.941Z,5.79
2023-01-13T03:00:28.794Z,5.78
2023-01-13T03:01:25.648Z,5.80
2023-01-13T03:02:22.725Z,5.78
2023-01-13T03:03:19.484Z,5.76
2023-01-13T03:04:44.782Z,5.79
2023-01-13T03:05:42.466Z,5.78
2023-01-13T03:06:54.133Z,5.83
2023-01-13T03:08:01.787Z,5.85
2023-01-13T03:09:07.266Z,5.87
2023-01-13T03:10:09.770Z,5.87
2023-01-13T03:11:08.460Z,5.90
2023-01-13T03:12:21.193Z,5.89
2023-01-13T03:13:33.083Z,5.93
2023-01-13T03:14:50.368Z,5.93
2023-01-13T03:16:28.100Z,5.97
2023-01-13T03:17:30.479Z,5.99
2023-01-13T03:18:50.982Z,6.03
2023-01-13T03:20:05.942Z,6.09
2023-01-13T03:21:25.945Z,6.14
2023-01-13T03:22:37.712Z,6.13
2023-01-13T03:23:38.175Z,6.13
2023-01-13T03:24:35.925Z,6.13
2023-01-13T03:25:53.739Z,6.20
2023-01-13T03:27:05.802Z,6.21
2023-01-13T03:28:07.324Z,6.30
2023-01-13T03:29:24.919Z,6.31
2023-01-13T03:30:27.293Z,6.32
2023-01-13T03:31:27.670Z,6.30
2023-01-13T03:32:34.610Z,6.26
2023-01-13T03:33:36.698Z,6.23
2023-01-13T03:34:36.169Z,6.19
2023-01-13T03:35:37.951Z,6.16
2023-01-13T03:36:35.115Z,6.15
2023-01-13T03:37:34.929Z,6.12
2023-01-13T03:38:33.782Z,6.10
2023-01-13T03:39:33.201Z,6.06
2023-01-13T03:40:33.020Z,6.08
2023-01-13T03:41:41.675Z,6.02
2023-01-13T03:42:38.393Z,6.06
2023-01-13T03:44:22.590Z,6.07
2023-01-13T03:45:19.434Z,6.02
2023-01-13T03:46:22.257Z,6.00
2023-01-13T03:47:44.586Z,5.96
2023-01-13T03:48:41.396Z,5.95
2023-01-13T03:49:47.136Z,5.93
2023-01-13T03:50:48.412Z,5.89
2023-01-13T03:51:47.788Z,5.89
2023-01-13T03:52:48.040Z,5.89
2023-01-13T03:53:51.311Z,5.91
2023-01-13T03:54:53.896Z,5.88
2023-01-13T03:55:52.645Z,5.88
2023-01-13T03:56:56.012Z,5.83
2023-01-13T03:58:14.463Z,5.78
2023-01-13T03:59:21.657Z,5.72
2023-01-13T04:00:20.412Z,5.73
2023-01-13T04:01:25.807Z,5.69
2023-01-13T04:02:29.203Z,5.72
2023-01-13T04:03:44.283Z,5.68
2023-01-13T04:05:03.403Z,5.67
2023-01-13T04:06:18.340Z,5.67
2023-01-13T04:07:31.955Z,5.65
2023-01-13T04:08:28.742Z,5.64
2023-01-13T04:09:32.434Z,5.59
2023-01-13T04:10:51.957Z,5.57
2023-01-13T04:12:08.983Z,5.55
2023-01-13T04:13:07.983Z,5.57
2023-01-13T04:14:05.024Z,5.57
2023-01-13T04:15:01.772Z,5.55
2023-01-13T04:15:59.033Z,5.56
2023-01-13T04:16:57.739Z,5.59
2023-01-13T04:17:54.666Z,5.60
2023-01-13T04:18:51.446Z,5.57
2023-01-13T04:19:48.148Z,5.55
2023-01-13T04:20:46.030Z,5.59
2023-01-13T04:21:42.770Z,5.65
2023-01-13T04:22:39.539Z,5.67
2023-01-13T04:23:36.322Z,5.67
2023-01-13T04:24:33.543Z,5.68
2023-01-13T04:25:43.072Z,5.72
2023-01-13T04:26:40.183Z,5.74
2023-01-13T04:27:36.932Z,5.73
2023-01-13T04:28:35.172Z,5.75
2023-01-13T04:29:32.168Z,5.77
2023-01-13T04:30:28.894Z,5.76
2023-01-13T04:31:25.705Z,5.74
2023-01-13T04:32:22.535Z,5.73
2023-01-13T04:33:19.393Z,5.70
2023-01-13T04:34:28.364Z,5.73
2023-01-13T04:35:25.815Z,5.74
2023-01-13T04:36:27.601Z,5.72
2023-01-13T04:37:24.442Z,5.75
2023-01-13T04:38:21.568Z,5.76
2023-01-13T04:39:18.259Z,5.75
2023-01-13T04:40:15.093Z,5.72
2023-01-13T04:41:11.923Z,5.76
2023-01-13T04:42:08.703Z,5.76
2023-01-13T04:43:05.472Z,5.81
2023-01-13T04:44:04.955Z,5.80
2023-01-13T04:45:01.794Z,5.79
2023-01-13T04:45:58.652Z,5.75
2023-01-13T04:46:55.377Z,5.77
2023-01-13T04:47:52.220Z,5.72
2023-01-13T04:48:49.088Z,5.78
2023-01-13T04:49:45.839Z,5.83
2023-01-13T04:50:42.621Z,5.87
2023-01-13T04:51:39.588Z,5.87
2023-01-13T04:52:36.430Z,5.89
2023-01-13T04:53:33.305Z,5.92
2023-01-13T04:54:30.121Z,5.95
2023-01-13T04:55:26.870Z,5.95
2023-01-13T04:56:23.953Z,5.96
2023-01-13T04:57:20.600Z,5.95
2023-01-13T04:58:17.446Z,5.98
2023-01-13T04:59:14.339Z,6.04
2023-01-13T05:00:12.444Z,6.07
2023-01-13T05:01:09.320Z,6.11
2023-01-13T05:02:08.972Z,6.13
2023-01-13T05:03:05.794Z,6.18
2023-01-13T05:04:06.515Z,6.14
2023-01-13T05:05:03.386Z,6.19
2023-01-13T05:06:00.110Z,6.20
2023-01-13T05:06:57.087Z,6.20
2023-01-13T05:07:53.870Z,6.21
2023-01-13T05:08:51.050Z,6.19
2023-01-13T05:09:47.741Z,6.20
2023-01-13T05:10:44.404Z,6.18
2023-01-13T05:12:00.575Z,6.19
2023-01-13T05:13:16.228Z,6.19
2023-01-13T05:14:31.837Z,6.21
2023-01-13T05:15:47.280Z,6.22
2023-01-13T05:17:02.943Z,6.21
2023-01-13T05:17:59.972Z,6.25
2023-01-13T05:18:56.737Z,6.24
2023-01-13T05:19:53.558Z,6.25
2023-01-13T05:20:50.964Z,6.27
2023-01-13T05:22:06.229Z,6.23
2023-01-13T05:23:21.799Z,6.22
2023-01-13T05:24:37.071Z,6.20
2023-01-13T05:25:34.897Z,6.20
2023-01-13T05:26:31.609Z,6.17
2023-01-13T05:27:28.539Z,6.17
2023-01-13T05:28:25.249Z,6.16
2023-01-13T05:29:22.184Z,6.18
2023-01-13T05:30:20.063Z,6.13
2023-01-13T05:31:16.772Z,6.12
2023-01-13T05:32:13.445Z,6.13
2023-01-13T05:33:14.740Z,6.13
2023-01-13T05:34:11.521Z,6.12
2023-01-13T05:35:08.772Z,6.12
2023-01-13T05:36:05.893Z,6.13
2023-01-13T05:37:03.400Z,6.17
2023-01-13T05:38:00.554Z,6.16
2023-01-13T05:38:57.416Z,6.19
2023-01-13T05:40:13.473Z,6.17
2023-01-13T05:41:28.809Z,6.16
2023-01-13T05:42:43.979Z,6.17
2023-01-13T05:43:40.781Z,6.17
2023-01-13T05:44:37.841Z,6.21
2023-01-13T05:45:34.762Z,6.23
2023-01-13T05:46:31.801Z,6.25
2023-01-13T05:47:28.531Z,6.28
2023-01-13T05:48:27.633Z,6.29
2023-01-13T05:49:24.720Z,6.31
2023-01-13T05:50:21.583Z,6.32
2023-01-13T05:51:19.718Z,6.35
2023-01-13T05:52:16.652Z,6.38
2023-01-13T05:53:13.535Z,6.35
2023-01-13T05:54:10.231Z,6.32
2023-01-13T05:55:07.367Z,6.26
2023-01-13T05:56:05.432Z,6.24
2023-01-13T05:57:02.808Z,6.23
2023-01-13T05:58:00.178Z,6.22
2023-01-13T05:58:56.899Z,6.16
2023-01-13T05:59:53.740Z,6.12
2023-01-13T06:00:50.554Z,6.07
2023-01-13T06:01:47.437Z,6.03
2023-01-13T06:02:44.400Z,6.02
2023-01-13T06:03:41.679Z,6.04
2023-01-13T06:04:38.715Z,6.07
2023-01-13T06:05:35.899Z,6.08
2023-01-13T06:06:32.824Z,6.05
2023-01-13T06:07:29.760Z,6.02
2023-01-13T06:08:26.978Z,5.96
2023-01-13T06:09:23.796Z,5.91
2023-01-13T06:10:20.976Z,5.93
2023-01-13T06:11:17.953Z,6.01
2023-01-13T06:12:14.769Z,6.08
2023-01-13T06:13:11.664Z,6.08
2023-01-13T06:14:08.538Z,6.07
2023-01-13T06:15:05.955Z,6.03
2023-01-13T06:16:03.123Z,5.98
2023-01-13T06:17:00.222Z,5.98
2023-01-13T06:17:57.587Z,6.02
2023-01-13T06:18:54.854Z,6.04
2023-01-13T06:19:51.791Z,6.06
2023-01-13T06:20:48.788Z,6.12
2023-01-13T06:21:45.725Z,6.12
2023-01-13T06:22:43.892Z,6.12
2023-01-13T06:23:41.017Z,6.14
2023-01-13T06:24:38.027Z,6.27
2023-01-13T06:25:34.783Z,6.30
2023-01-13T06:26:33.663Z,6.31
2023-01-13T06:27:30.811Z,6.34
2023-01-13T06:28:27.657Z,6.31
2023-01-13T06:29:24.496Z,6.31
2023-01-13T06:30:21.360Z,6.25
2023-01-13T06:31:18.330Z,6.27
2023-01-13T06:32:21.644Z,6.26
2023-01-13T06:33:21.242Z,6.21
2023-01-13T06:34:18.617Z,6.17
2023-01-13T06:35:16.185Z,6.11
2023-01-13T06:36:15.853Z,6.05
2023-01-13T06:37:13.165Z,6.01
2023-01-13T06:38:10.943Z,5.98
2023-01-13T06:39:07.615Z,5.95
2023-01-13T06:40:05.504Z,5.94
2023-01-13T06:41:02.463Z,5.93
2023-01-13T06:42:18.015Z,5.92
2023-01-13T06:43:17.926Z,5.93
2023-01-13T06:44:14.978Z,5.91
2023-01-13T06:45:11.767Z,5.93
2023-01-13T06:46:08.614Z,5.95
2023-01-13T06:47:05.387Z,5.94
2023-01-13T06:48:02.225Z,5.95
2023-01-13T06:48:58.892Z,5.94
2023-01-13T06:49:55.599Z,5.94
2023-01-13T06:50:52.606Z,5.87
2023-01-13T06:51:49.697Z,5.85
2023-01-13T06:52:46.405Z,5.79
2023-01-13T06:53:43.200Z,5.77
2023-01-13T06:54:39.935Z,5.75
2023-01-13T06:55:36.903Z,5.71
2023-01-13T06:56:35.422Z,5.67
2023-01-13T06:57:32.329Z,5.67
2023-01-13T06:58:29.303Z,5.70
2023-01-13T06:59:26.040Z,5.67
2023-01-13T07:00:23.537Z,5.64
2023-01-13T07:01:20.510Z,5.66
2023-01-13T07:02:17.582Z,5.65
2023-01-13T07:03:15.914Z,5.65
2023-01-13T07:04:13.659Z,5.61
2023-01-13T07:05:10.386Z,5.57
2023-01-13T07:06:07.661Z,5.54
2023-01-13T07:07:04.725Z,5.52
2023-01-13T07:08:01.627Z,5.52
2023-01-13T07:08:58.360Z,5.53
2023-01-13T07:09:55.093Z,5.56
2023-01-13T07:10:53.051Z,5.53
2023-01-13T07:11:52.891Z,5.55
2023-01-13T07:13:09.888Z,5.54
2023-01-13T07:14:25.198Z,5.46
2023-01-13T07:15:22.060Z,5.47
2023-01-13T07:16:18.936Z,5.45
2023-01-13T07:17:15.895Z,5.44
2023-01-13T07:18:12.581Z,5.45
2023-01-13T07:19:09.406Z,5.44
2023-01-13T07:20:06.787Z,5.45
2023-01-13T07:21:05.501Z,5.43
2023-01-13T07:22:02.317Z,5.39
2023-01-13T07:22:59.095Z,5.37
2023-01-13T07:23:56.030Z,5.36
2023-01-13T07:24:53.270Z,5.37
2023-01-13T07:25:50.715Z,5.37
2023-01-13T07:26:47.579Z,5.37
2023-01-13T07:27:44.542Z,5.34
2023-01-13T07:28:41.834Z,5.33
2023-01-13T07:29:38.790Z,5.33
2023-01-13T07:30:35.779Z,5.30
2023-01-13T07:31:32.909Z,5.27
2023-01-13T07:32:32.878Z,5.23
2023-01-13T07:33:33.199Z,5.16
2023-01-13T07:34:30.196Z,5.16
2023-01-13T07:35:26.990Z,5.19
2023-01-13T07:36:23.748Z,5.16
2023-01-13T07:37:20.505Z,5.11
2023-01-13T07:38:17.582Z,5.13
2023-01-13T07:39:14.587Z,5.16
2023-01-13T07:40:12.753Z,5.18
2023-01-13T07:41:31.273Z,5.21
2023-01-13T07:42:49.048Z,5.20
2023-01-13T07:43:45.882Z,5.27
2023-01-13T07:44:42.746Z,5.29
2023-01-13T07:45:39.677Z,5.34
2023-01-13T07:46:39.945Z,5.38
2023-01-13T07:47:39.567Z,5.41
2023-01-13T07:48:36.387Z,5.42
2023-01-13T07:49:33.273Z,5.39
2023-01-13T07:50:30.117Z,5.44
2023-01-13T07:51:27.038Z,5.46
2023-01-13T07:52:23.818Z,5.46
2023-01-13T07:53:21.238Z,5.47
2023-01-13T07:54:19.321Z,5.48
2023-01-13T07:55:16.375Z,5.51
2023-01-13T07:56:16.027Z,5.49
2023-01-13T07:57:12.936Z,5.51
2023-01-13T07:58:10.502Z,5.54
2023-01-13T07:59:09.305Z,5.55
2023-01-13T08:00:06.618Z,5.54
2023-01-13T08:01:13.433Z,5.58
2023-01-13T08:02:13.521Z,5.64
2023-01-13T08:03:10.741Z,5.72
2023-01-13T08:04:08.047Z,5.78
2023-01-13T08:05:05.626Z,5.81
2023-01-13T08:06:02.548Z,5.87
2023-01-13T08:06:59.383Z,5.95
2023-01-13T08:07:56.348Z,5.96
2023-01-13T08:08:53.221Z,5.97
2023-01-13T08:09:50.203Z,6.00
2023-01-13T08:10:46.921Z,6.01
2023-01-13T08:11:43.645Z,6.02
2023-01-13T08:12:58.923Z,6.06
2023-01-13T08:13:57.643Z,6.08
2023-01-13T08:14:54.554Z,6.15
2023-01-13T08:15:53.023Z,6.17
2023-01-13T08:16:49.871Z,6.20
2023-01-13T08:17:49.725Z,6.20
2023-01-13T08:18:46.869Z,6.24
2023-01-13T08:19:43.644Z,6.32
2023-01-13T08:20:40.843Z,6.36
2023-01-13T08:21:37.678Z,6.38
2023-01-13T08:22:34.725Z,6.43
2023-01-13T08:23:31.612Z,6.45
2023-01-13T08:24:28.388Z,6.50
2023-01-13T08:25:26.580Z,6.52
2023-01-13T08:26:23.541Z,6.52
2023-01-13T08:27:20.760Z,6.56
2023-01-13T08:28:17.703Z,6.57
2023-01-13T08:29:15.140Z,6.63
2023-01-13T08:30:12.359Z,6.64
2023-01-13T08:31:14.169Z,6.66
2023-01-13T08:32:10.951Z,6.62
2023-01-13T08:33:09.116Z,6.65
2023-01-13T08:34:06.020Z,6.66
2023-01-13T08:35:06.035Z,6.71
2023-01-13T08:36:04.591Z,6.71
2023-01-13T08:37:01.474Z,6.69
2023-01-13T08:37:58.255Z,6.66
2023-01-13T08:38:55.057Z,6.65
2023-01-13T08:39:52.037Z,6.63
2023-01-13T08:40:48.867Z,6.65
2023-01-13T08:41:58.917Z,6.68
2023-01-13T08:42:56.688Z,6.69
2023-01-13T08:43:53.830Z,6.70
2023-01-13T08:44:50.562Z,6.71
2023-01-13T08:45:58.329Z,6.69
2023-01-13T08:46:57.253Z,6.71
2023-01-13T08:47:55.399Z,6.70
2023-01-13T08:48:56.818Z,6.66
2023-01-13T08:49:55.816Z,6.65
2023-01-13T08:50:53.361Z,6.71
2023-01-13T08:51:50.565Z,6.72
2023-01-13T08:52:47.506Z,6.71
2023-01-13T08:53:44.329Z,6.69
2023-01-13T08:54:41.292Z,6.68
2023-01-13T08:55:38.116Z,6.70
2023-01-13T08:56:35.692Z,6.74
2023-01-13T08:57:32.725Z,6.76
2023-01-13T08:58:29.686Z,6.84
2023-01-13T08:59:26.799Z,6.85
2023-01-13T09:00:23.625Z,6.88
2023-01-13T09:01:22.503Z,6.88
2023-01-13T09:02:21.020Z,6.94
2023-01-13T09:03:17.933Z,6.99
2023-01-13T09:04:19.886Z,6.97
2023-01-13T09:05:17.838Z,6.93
2023-01-13T09:06:14.826Z,6.91
2023-01-13T09:07:11.565Z,6.95
2023-01-13T09:08:08.289Z,7.00
2023-01-13T09:09:04.969Z,7.02
2023-01-13T09:10:04.308Z,7.07
2023-01-13T09:11:00.987Z,7.07
2023-01-13T09:12:16.675Z,7.08
2023-01-13T09:13:13.790Z,7.20
2023-01-13T09:14:10.766Z,7.25
2023-01-13T09:15:07.686Z,7.33
2023-01-13T09:16:04.630Z,7.32
2023-01-13T09:17:01.656Z,7.31
2023-01-13T09:17:58.513Z,7.34
2023-01-13T09:18:55.262Z,7.26
2023-01-13T09:19:52.092Z,7.18
2023-01-13T09:20:48.831Z,7.12
2023-01-13T09:21:45.656Z,7.12
2023-01-13T09:22:42.688Z,7.17
2023-01-13T09:23:39.547Z,7.23
2023-01-13T09:24:36.350Z,7.18
2023-01-13T09:25:35.566Z,7.18
2023-01-13T09:26:32.413Z,7.16
2023-01-13T09:27:29.348Z,7.21
2023-01-13T09:28:26.051Z,7.18
2023-01-13T09:29:23.487Z,7.25
2023-01-13T09:30:20.362Z,7.22
2023-01-13T09:31:17.140Z,7.18
2023-01-13T09:32:14.545Z,7.20
2023-01-13T09:33:29.944Z,7.20
2023-01-13T09:34:45.516Z,7.24
2023-01-13T09:35:42.363Z,7.27
2023-01-13T09:36:39.069Z,7.25
2023-01-13T09:37:37.820Z,7.25
2023-01-13T09:38:34.523Z,7.27
2023-01-13T09:39:32.717Z,7.31
2023-01-13T09:40:32.289Z,7.32
2023-01-13T09:41:48.216Z,7.37
2023-01-13T09:43:20.955Z,7.36
2023-01-13T09:44:22.590Z,7.41
2023-01-13T09:45:27.816Z,7.37
2023-01-13T09:46:47.438Z,7.34
2023-01-13T09:48:15.372Z,7.26
2023-01-13T09:49:20.473Z,7.33
2023-01-13T09:50:17.194Z,7.39
2023-01-13T09:51:24.465Z,7.36
2023-01-13T09:52:26.640Z,7.40
2023-01-13T09:53:32.208Z,7.41
2023-01-13T09:54:32.473Z,7.32
2023-01-13T09:55:34.921Z,7.33
2023-01-13T09:56:31.682Z,7.26
2023-01-13T09:57:28.766Z,7.25
2023-01-13T09:58:25.445Z,7.33
2023-01-13T09:59:22.306Z,7.40
2023-01-13T10:00:22.699Z,7.42
2023-01-13T10:01:53.132Z,7.40
2023-01-13T10:03:14.431Z,7.37
2023-01-13T10:04:11.998Z,7.29
2023-01-13T10:05:35.324Z,7.32
2023-01-13T10:06:42.525Z,7.32
2023-01-13T10:07:42.684Z,7.31
2023-01-13T10:08:40.898Z,7.34
2023-01-13T10:10:03.976Z,7.48
2023-01-13T10:11:23.915Z,7.53
2023-01-13T10:12:43.557Z,7.71
2023-01-13T10:13:40.322Z,7.87
2023-01-13T10:14:53.334Z,7.93
2023-01-13T10:16:10.416Z,7.92
2023-01-13T10:17:34.425Z,7.82
2023-01-13T10:18:43.850Z,7.78
2023-01-13T10:20:08.321Z,7.70
2023-01-13T10:21:13.692Z,7.63
2023-01-13T10:22:33.636Z,7.61
2023-01-13T10:23:45.421Z,7.61
2023-01-13T10:24:56.972Z,7.59
2023-01-13T10:26:24.226Z,7.62
2023-01-13T10:27:37.726Z,7.67
2023-01-13T10:28:34.663Z,7.65
2023-01-13T10:29:31.787Z,7.66
2023-01-13T10:30:33.903Z,7.67
2023-01-13T10:31:31.251Z,7.68
2023-01-13T10:32:28.371Z,7.69
2023-01-13T10:33:30.764Z,7.79
2023-01-13T10:34:27.862Z,7.84
2023-01-13T10:35:49.943Z,7.78
2023-01-13T10:37:05.760Z,7.82
2023-01-13T10:38:02.571Z,7.89
2023-01-13T10:39:09.838Z,7.94
2023-01-13T10:40:12.494Z,7.92
2023-01-13T10:41:27.511Z,7.82
2023-01-13T10:42:24.565Z,7.83
2023-01-13T10:43:21.639Z,7.97
2023-01-13T10:44:18.729Z,8.07
2023-01-13T10:45:24.550Z,8.15
2023-01-13T10:46:21.384Z,8.17
2023-01-13T10:47:28.973Z,8.23
2023-01-13T10:48:39.138Z,8.19
2023-01-13T10:49:37.300Z,8.06
2023-01-13T10:50:35.311Z,8.19
2023-01-13T10:51:37.966Z,8.28
2023-01-13T10:52:40.074Z,8.31
2023-01-13T10:53:44.363Z,8.39
2023-01-13T10:54:41.189Z,8.43
2023-01-13T10:55:38.116Z,8.35
2023-01-13T10:56:34.877Z,8.24
2023-01-13T10:57:34.767Z,8.26
2023-01-13T10:58:31.504Z,8.20
2023-01-13T10:59:28.346Z,8.29
2023-01-13T11:00:32.998Z,8.30
2023-01-13T11:01:30.499Z,8.37
2023-01-13T11:02:31.996Z,8.36
2023-01-13T11:03:48.157Z,8.23
2023-01-13T11:04:53.795Z,7.99
2023-01-13T11:05:55.166Z,7.98
2023-01-13T11:06:51.838Z,7.97
2023-01-13T11:07:52.669Z,7.94
2023-01-13T11:08:50.409Z,7.87
2023-01-13T11:09:47.219Z,7.96
2023-01-13T11:10:48.156Z,7.94
2023-01-13T11:11:45.526Z,7.92
2023-01-13T11:13:04.086Z,7.95
2023-01-13T11:14:20.770Z,7.93
2023-01-13T11:15:20.441Z,7.90
2023-01-13T11:16:17.413Z,7.86
2023-01-13T11:17:27.801Z,7.88
2023-01-13T11:19:02.326Z,7.93
2023-01-13T11:20:23.662Z,7.94
2023-01-13T11:21:23.296Z,7.96
2023-01-13T11:22:23.533Z,7.96
2023-01-13T11:23:32.239Z,7.95
2023-01-13T11:24:52.035Z,8.10
2023-01-13T11:25:53.904Z,8.14
2023-01-13T11:26:55.449Z,8.22
2023-01-13T11:28:00.696Z,8.07
2023-01-13T11:29:16.693Z,7.99
2023-01-13T11:30:24.462Z,7.90
2023-01-13T11:31:41.249Z,7.87
2023-01-13T11:32:51.975Z,7.87
2023-01-13T11:33:55.869Z,7.94
2023-01-13T11:35:05.447Z,7.92
2023-01-13T11:36:17.774Z,7.87
2023-01-13T11:37:23.492Z,7.78
2023-01-13T11:38:35.051Z,7.62
2023-01-13T11:39:57.950Z,7.30
2023-01-13T11:40:55.552Z,7.16
2023-01-13T11:42:20.677Z,7.10
2023-01-13T11:43:23.340Z,7.03
2023-01-13T11:44:23.204Z,7.04
2023-01-13T11:45:20.249Z,7.03
2023-01-13T11:46:17.186Z,7.03
2023-01-13T11:47:14.582Z,7.02
2023-01-13T11:48:20.892Z,7.07
2023-01-13T11:49:28.607Z,7.13
2023-01-13T11:50:51.307Z,7.18
2023-01-13T11:51:55.586Z,7.24
2023-01-13T11:53:23.671Z,7.25
2023-01-13T11:54:55.180Z,7.29
2023-01-13T11:56:29.421Z,7.30
2023-01-13T11:57:58.262Z,7.37
2023-01-13T11:59:04.887Z,7.44
2023-01-13T12:00:35.467Z,7.49
2023-01-13T12:01:44.691Z,7.56
2023-01-13T12:05:07.126Z,7.57
2023-01-13T12:06:48.719Z,7.59
2023-01-13T12:08:05.605Z,7.58
2023-01-13T12:09:38.496Z,7.56
2023-01-13T12:10:52.727Z,7.54
2023-01-13T12:12:15.215Z,7.54
2023-01-13T12:13:47.338Z,7.58
2023-01-13T12:14:48.319Z,7.55
2023-01-13T12:16:16.039Z,7.57
2023-01-13T12:17:25.244Z,7.57
2023-01-13T12:18:38.814Z,7.56
2023-01-13T12:19:36.310Z,7.61
2023-01-13T12:20:35.868Z,7.64
2023-01-13T12:21:36.208Z,7.67
2023-01-13T12:22:35.910Z,7.75
2023-01-13T12:24:03.722Z,7.77
2023-01-13T12:25:05.305Z,7.81
2023-01-13T12:26:12.455Z,7.86
2023-01-13T12:27:17.787Z,7.94
2023-01-13T12:28:17.929Z,7.87
2023-01-13T12:29:19.724Z,7.87
2023-01-13T12:30:22.514Z,7.87
2023-01-13T12:31:19.390Z,7.95
2023-01-13T12:32:21.298Z,7.90
2023-01-13T12:33:39.622Z,7.81
2023-01-13T12:35:01.043Z,7.81
2023-01-13T12:36:18.825Z,7.67
2023-01-13T12:37:30.239Z,7.56
2023-01-13T12:38:53.346Z,7.41
2023-01-13T12:39:56.114Z,7.38
2023-01-13T12:41:12.330Z,7.37
2023-01-13T12:42:40.767Z,7.32
2023-01-13T12:44:00.834Z,7.32
2023-01-13T12:45:11.054Z,7.38
2023-01-13T12:48:44.784Z,7.20
2023-01-13T12:49:47.318Z,7.12
2023-01-13T12:50:44.517Z,7.04
2023-01-13T12:52:14.393Z,7.00
2023-01-13T12:53:30.864Z,6.98
2023-01-13T12:54:30.584Z,6.94
2023-01-13T12:55:36.460Z,6.94
2023-01-13T12:56:37.035Z,6.97
2023-01-13T12:57:34.064Z,6.97
2023-01-13T12:58:31.134Z,6.97
2023-01-13T12:59:27.790Z,6.96
2023-01-13T13:00:26.020Z,6.94
2023-01-13T13:01:38.527Z,6.82
2023-01-13T13:02:38.492Z,6.68
2023-01-13T13:03:35.908Z,6.63
2023-01-13T13:04:49.569Z,6.55
2023-01-13T13:06:15.565Z,6.49
2023-01-13T13:07:31.333Z,6.38
2023-01-13T13:08:45.151Z,6.22
2023-01-13T13:09:53.563Z,6.12
2023-01-13T13:11:40.787Z,6.03
2023-01-13T13:12:58.996Z,5.90
2023-01-13T13:13:56.056Z,5.87
2023-01-13T13:15:02.279Z,5.89
2023-01-13T13:16:25.776Z,5.88
2023-01-13T13:17:31.750Z,5.87
2023-01-13T13:18:28.743Z,5.87
2023-01-13T13:19:25.575Z,5.84
2023-01-13T13:20:56.075Z,5.79
2023-01-13T13:22:16.813Z,5.69
2023-01-13T13:23:39.791Z,5.66
2023-01-13T13:24:36.665Z,5.67
2023-01-13T13:25:33.347Z,5.60
2023-01-13T13:26:42.441Z,5.58
2023-01-13T13:27:45.302Z,5.54
2023-01-13T13:28:54.725Z,5.55
2023-01-13T13:30:13.582Z,5.56
2023-01-13T13:31:37.770Z,5.58
2023-01-13T13:32:53.097Z,5.63
2023-01-13T13:33:52.897Z,5.66
2023-01-13T13:35:23.401Z,5.71
2023-01-13T13:36:41.789Z,5.72
2023-01-13T13:38:13.936Z,5.77
2023-01-13T13:39:43.378Z,5.83
2023-01-13T13:41:00.212Z,5.89
2023-01-13T13:42:22.933Z,5.95
2023-01-13T13:43:38.528Z,5.99
2023-01-13T13:44:58.707Z,6.03
2023-01-13T13:46:14.122Z,5.95
2023-01-13T13:47:10.996Z,5.88
2023-01-13T13:48:30.845Z,5.81
2023-01-13T13:49:46.897Z,5.78
2023-01-13T13:50:47.998Z,5.72
2023-01-13T13:52:03.448Z,5.68
2023-01-13T13:53:08.585Z,5.67
2023-01-13T13:54:05.250Z,5.63
2023-01-13T13:55:30.952Z,5.72
2023-01-13T13:56:28.067Z,5.71
2023-01-13T13:57:34.562Z,5.76
2023-01-13T13:58:33.736Z,5.81
2023-01-13T13:59:30.955Z,5.84
2023-01-13T14:00:33.532Z,5.92
2023-01-13T14:01:35.355Z,6.00
2023-01-13T14:02:34.695Z,6.02
2023-01-13T14:03:32.497Z,6.06
2023-01-13T14:04:33.420Z,6.10